Time;durP1;ratioP1;P1;durP2;ratioP2;P2;SDS_P1;SDS_P2;PMS_P1;PMS_P2;Temp;Humidity;BMP_temperature;BMP_pressure;BME280_temperature;BME280_humidity;BME280_pressure;Samples;Min_cycle;Max_cycle;Signal;HPM_P1;HPM_P2
2021/06/21 00:02:22;;;;;;;14.80;3.30;;;18.30;99.90;;;;;;5094583;28;20184;-77
2021/06/21 00:04:49;;;;;;;14.80;3.60;;;18.30;99.90;;;;;;5095736;28;20248;-77
2021/06/21 00:07:15;;;;;;;10.77;3.10;;;18.30;99.90;;;;;;5094043;28;20204;-77
2021/06/21 00:09:41;;;;;;;11.57;3.30;;;18.30;99.90;;;;;;5094759;28;20176;-77
2021/06/21 00:12:14;;;;;;;12.70;3.47;;;18.30;99.90;;;;;;5099205;28;20169;-77
2021/06/21 00:14:40;;;;;;;12.07;2.77;;;18.20;99.90;;;;;;5098534;28;20199;-77
2021/06/21 00:17:07;;;;;;;7.97;3.60;;;18.20;99.90;;;;;;5097571;28;20661;-77
2021/06/21 00:19:33;;;;;;;11.13;4.10;;;18.20;99.90;;;;;;5098936;28;20257;-77
2021/06/21 00:21:59;;;;;;;10.07;4.20;;;18.20;99.90;;;;;;5098548;28;20165;-77
2021/06/21 00:24:25;;;;;;;12.90;3.57;;;18.20;99.90;;;;;;5097662;28;20634;-77
2021/06/21 00:26:51;;;;;;;11.23;3.63;;;18.20;99.90;;;;;;5097056;28;20567;-77
2021/06/21 00:29:17;;;;;;;8.70;3.13;;;18.10;99.90;;;;;;5098552;28;20206;-77
2021/06/21 00:31:43;;;;;;;9.07;3.60;;;18.10;99.90;;;;;;5097140;28;20654;-76
2021/06/21 00:34:09;;;;;;;11.27;3.63;;;18.10;99.90;;;;;;5097193;28;20173;-77
2021/06/21 00:36:35;;;;;;;10.20;3.77;;;18.10;99.90;;;;;;5097143;28;20264;-77
2021/06/21 00:39:03;;;;;;;9.60;3.90;;;18.00;99.90;;;;;;5098099;28;20535;-77
2021/06/21 00:41:29;;;;;;;15.53;3.47;;;18.00;99.90;;;;;;5098231;28;20528;-77
2021/06/21 00:43:55;;;;;;;15.80;4.87;;;17.90;99.90;;;;;;5098301;28;20566;-77
2021/06/21 00:46:21;;;;;;;9.50;3.20;;;17.90;99.90;;;;;;5098352;28;20172;-77
2021/06/21 00:48:46;;;;;;;8.73;4.00;;;17.90;99.90;;;;;;5098647;28;20196;-77
2021/06/21 00:51:12;;;;;;;9.63;3.57;;;17.90;99.90;;;;;;5098109;28;20181;-77
2021/06/21 00:53:38;;;;;;;15.53;3.97;;;17.90;99.90;;;;;;5098059;28;20181;-77
2021/06/21 00:56:05;;;;;;;10.07;3.40;;;17.90;99.90;;;;;;5096975;28;20271;-77
2021/06/21 00:58:30;;;;;;;11.23;3.93;;;17.90;99.90;;;;;;5097929;28;20246;-77
2021/06/21 01:00:56;;;;;;;8.77;3.23;;;17.90;99.90;;;;;;5096294;28;20177;-77
2021/06/21 01:03:22;;;;;;;8.90;3.60;;;17.90;99.90;;;;;;5097572;28;20665;-77
2021/06/21 01:05:48;;;;;;;12.37;3.50;;;17.90;99.90;;;;;;5097240;28;20241;-77
2021/06/21 01:08:13;;;;;;;12.37;3.63;;;17.90;99.90;;;;;;5095846;28;20214;-77
2021/06/21 01:10:41;;;;;;;13.07;3.80;;;17.90;99.90;;;;;;5095848;28;20177;-77
2021/06/21 01:13:35;;;;;;;13.67;3.80;;;18.00;99.90;;;;;;5097189;28;20188;-77
2021/06/21 01:16:03;;;;;;;9.87;3.67;;;18.00;99.90;;;;;;5095813;28;20180;-77
2021/06/21 01:18:33;;;;;;;10.47;3.20;;;18.00;99.90;;;;;;5095687;28;20203;-77
2021/06/21 01:21:19;;;;;;;10.30;3.53;;;18.00;99.90;;;;;;5096661;28;20698;-77
2021/06/21 01:24:15;;;;;;;9.80;3.83;;;17.90;99.90;;;;;;5095720;28;20173;-77
2021/06/21 01:26:51;;;;;;;11.97;3.70;;;17.90;99.90;;;;;;5096645;28;20206;-77
2021/06/21 01:29:41;;;;;;;9.07;3.53;;;17.90;99.90;;;;;;5096957;28;20207;-77
2021/06/21 01:32:15;;;;;;;12.57;3.37;;;17.90;99.90;;;;;;5097228;28;20170;-77
2021/06/21 01:34:48;;;;;;;11.57;2.90;;;17.90;99.90;;;;;;5097509;28;20157;-77
2021/06/21 01:37:16;;;;;;;12.20;3.20;;;18.00;99.90;;;;;;5096562;28;20579;-77
2021/06/21 01:39:45;;;;;;;6.43;3.00;;;17.90;99.90;;;;;;5098293;28;20509;-77
2021/06/21 01:42:13;;;;;;;10.50;2.73;;;17.90;99.90;;;;;;5097826;28;20194;-77
2021/06/21 01:44:59;;;;;;;6.93;2.73;;;17.90;99.90;;;;;;5096342;28;20170;-77
2021/06/21 01:47:25;;;;;;;5.67;2.63;;;17.80;99.90;;;;;;5097408;28;20242;-77
2021/06/21 01:49:52;;;;;;;11.30;2.73;;;17.80;99.90;;;;;;5097265;28;20171;-77
2021/06/21 01:52:19;;;;;;;8.47;3.27;;;17.70;99.90;;;;;;5097045;28;20202;-77
2021/06/21 01:54:53;;;;;;;9.87;3.07;;;17.70;99.90;;;;;;5096331;28;20321;-77
2021/06/21 01:57:28;;;;;;;8.30;2.33;;;17.60;99.90;;;;;;5095263;28;20201;-77
2021/06/21 01:59:55;;;;;;;10.93;3.30;;;17.60;99.90;;;;;;5096661;28;20167;-77
2021/06/21 02:02:23;;;;;;;8.87;2.60;;;17.50;99.90;;;;;;5095323;28;20222;-77
2021/06/21 02:04:52;;;;;;;10.10;2.87;;;17.50;99.90;;;;;;5096419;28;20550;-77
2021/06/21 02:07:21;;;;;;;10.17;3.40;;;17.50;99.90;;;;;;5096165;28;20682;-77
2021/06/21 02:09:47;;;;;;;13.70;2.37;;;17.50;99.90;;;;;;5094903;28;20176;-77
2021/06/21 02:12:18;;;;;;;5.73;2.97;;;17.50;99.90;;;;;;5096541;28;20196;-77
2021/06/21 02:14:48;;;;;;;9.03;3.13;;;17.40;99.90;;;;;;5095990;28;20198;-77
2021/06/21 02:17:15;;;;;;;10.77;2.57;;;17.40;99.90;;;;;;5095829;28;20665;-76
2021/06/21 02:19:41;;;;;;;6.07;2.43;;;17.40;99.90;;;;;;5096449;28;20173;-76
2021/06/21 02:22:07;;;;;;;6.77;2.20;;;17.40;99.90;;;;;;5097363;28;20177;-77
2021/06/21 02:24:35;;;;;;;11.13;2.83;;;17.40;99.90;;;;;;5096999;28;20532;-76
2021/06/21 02:27:03;;;;;;;7.60;2.70;;;17.40;99.90;;;;;;5096613;28;20216;-76
2021/06/21 02:29:30;;;;;;;9.43;2.30;;;17.40;99.90;;;;;;5095490;28;20190;-76
2021/06/21 02:31:56;;;;;;;9.53;2.47;;;17.40;99.90;;;;;;5095751;28;20534;-76
2021/06/21 02:34:22;;;;;;;4.07;2.07;;;17.40;99.90;;;;;;5095427;28;20630;-77
2021/06/21 02:36:49;;;;;;;5.87;2.47;;;17.40;99.90;;;;;;5096040;28;20192;-76
2021/06/21 02:39:15;;;;;;;9.13;2.77;;;17.40;99.90;;;;;;5096156;28;20200;-76
2021/06/21 02:41:41;;;;;;;6.87;2.17;;;17.40;99.90;;;;;;5094476;28;20550;-77
2021/06/21 02:44:07;;;;;;;10.37;2.77;;;17.40;99.90;;;;;;5094192;28;20646;-77
2021/06/21 02:46:34;;;;;;;9.23;2.40;;;17.40;99.90;;;;;;5094194;28;20262;-76
2021/06/21 02:49:00;;;;;;;6.97;2.40;;;17.40;99.90;;;;;;5095327;28;20287;-76
2021/06/21 02:51:40;;;;;;;8.27;2.10;;;17.40;99.90;;;;;;5094116;28;20179;-76
2021/06/21 02:54:19;;;;;;;5.93;2.00;;;17.50;99.90;;;;;;5094151;28;20220;-76
2021/06/21 02:56:49;;;;;;;7.87;2.90;;;17.50;99.90;;;;;;5094088;28;20188;-76
2021/06/21 02:59:20;;;;;;;5.70;1.80;;;17.50;99.90;;;;;;5093843;28;20239;-76
2021/06/21 03:01:54;;;;;;;11.30;2.23;;;17.50;99.90;;;;;;5095024;28;20167;-77
2021/06/21 03:04:22;;;;;;;9.23;1.90;;;17.50;99.90;;;;;;5093834;28;20171;-76
2021/06/21 03:06:51;;;;;;;7.17;2.17;;;17.50;99.90;;;;;;5095524;28;20284;-78
2021/06/21 03:09:21;;;;;;;7.23;1.43;;;17.50;99.90;;;;;;5095261;28;20653;-78
2021/06/21 03:11:52;;;;;;;7.03;2.13;;;17.40;99.90;;;;;;5096716;28;20196;-78
2021/06/21 03:14:23;;;;;;;7.57;1.97;;;17.40;99.90;;;;;;5095595;28;20176;-78
2021/06/21 03:16:52;;;;;;;10.90;1.80;;;17.40;99.90;;;;;;5098310;28;20188;-78
2021/06/21 03:19:18;;;;;;;8.83;2.00;;;17.40;99.90;;;;;;5097174;28;20172;-78
2021/06/21 03:21:47;;;;;;;9.23;2.17;;;17.40;99.90;;;;;;5097111;28;20179;-78
2021/06/21 03:24:14;;;;;;;10.57;2.10;;;17.50;99.90;;;;;;5097489;28;20242;-78
2021/06/21 03:26:41;;;;;;;11.40;2.07;;;17.40;99.90;;;;;;5097801;28;20291;-78
2021/06/21 03:29:18;;;;;;;9.67;2.07;;;17.50;99.90;;;;;;5096188;28;20202;-79
2021/06/21 03:31:45;;;;;;;6.03;2.20;;;17.50;99.90;;;;;;5095818;28;20233;-79
2021/06/21 03:34:12;;;;;;;6.73;1.63;;;17.50;99.90;;;;;;5095996;28;20182;-78
2021/06/21 03:36:39;;;;;;;14.67;2.70;;;17.50;99.90;;;;;;5097641;28;20255;-78
2021/06/21 03:39:05;;;;;;;9.90;2.17;;;17.60;99.90;;;;;;5097360;28;20183;-78
2021/06/21 03:41:31;;;;;;;4.57;1.57;;;17.60;99.90;;;;;;5095963;28;20176;-79
2021/06/21 03:43:57;;;;;;;10.63;2.60;;;17.60;99.90;;;;;;5098510;28;20183;-79
2021/06/21 03:46:22;;;;;;;7.83;1.77;;;17.60;99.90;;;;;;5101990;28;20169;-78
2021/06/21 03:48:48;;;;;;;11.30;2.10;;;17.60;99.90;;;;;;5102350;28;20188;-78
2021/06/21 03:51:14;;;;;;;4.97;1.80;;;17.60;99.90;;;;;;5100018;28;20184;-78
2021/06/21 03:53:39;;;;;;;10.70;2.40;;;17.60;99.90;;;;;;5100822;28;20521;-78
2021/06/21 03:56:05;;;;;;;12.10;2.07;;;17.60;99.90;;;;;;5100149;28;20180;-78
2021/06/21 03:58:31;;;;;;;7.27;1.60;;;17.60;99.90;;;;;;5099684;28;20200;-78
2021/06/21 04:00:57;;;;;;;6.10;1.80;;;17.60;99.90;;;;;;5102050;28;20177;-79
2021/06/21 04:03:23;;;;;;;8.63;2.00;;;17.50;99.90;;;;;;5100949;28;20176;-79
2021/06/21 04:05:50;;;;;;;6.43;1.47;;;17.50;99.90;;;;;;5100164;28;20203;-78
2021/06/21 04:08:16;;;;;;;5.93;2.13;;;17.50;99.90;;;;;;5101033;28;20201;-79
2021/06/21 04:10:44;;;;;;;9.97;2.13;;;17.50;99.90;;;;;;5101247;28;20172;-78
2021/06/21 04:13:10;;;;;;;10.53;2.57;;;17.50;99.90;;;;;;5101380;28;20223;-79
2021/06/21 04:15:36;;;;;;;9.57;2.17;;;17.50;99.90;;;;;;5102390;28;20627;-79
2021/06/21 04:18:07;;;;;;;7.63;1.90;;;17.50;99.90;;;;;;5101798;28;20221;-79
2021/06/21 04:20:33;;;;;;;7.60;1.93;;;17.60;99.90;;;;;;5101933;28;20161;-79
2021/06/21 04:22:59;;;;;;;10.57;3.00;;;17.70;99.90;;;;;;5102010;28;20241;-79
2021/06/21 04:25:25;;;;;;;9.70;1.83;;;17.70;99.90;;;;;;5101285;28;20646;-79
2021/06/21 04:27:51;;;;;;;8.27;2.80;;;17.80;99.90;;;;;;5102840;28;20219;-79
2021/06/21 04:30:19;;;;;;;12.13;2.27;;;17.90;99.90;;;;;;5102445;28;20228;-79
2021/06/21 04:32:47;;;;;;;5.50;1.80;;;18.00;99.90;;;;;;5101182;28;20203;-79
2021/06/21 04:35:16;;;;;;;7.97;1.80;;;18.00;99.90;;;;;;5102785;28;20692;-79
2021/06/21 04:37:42;;;;;;;6.90;1.73;;;18.10;99.90;;;;;;5102916;28;20192;-79
2021/06/21 04:40:12;;;;;;;6.97;1.97;;;18.20;99.90;;;;;;5103559;28;20230;-79
2021/06/21 04:42:37;;;;;;;6.90;1.60;;;18.30;99.90;;;;;;5096331;28;20172;-77
2021/06/21 04:45:05;;;;;;;8.43;2.30;;;18.30;99.90;;;;;;5096712;28;20235;-77
2021/06/21 04:47:31;;;;;;;4.40;1.57;;;18.30;99.90;;;;;;5095268;28;20273;-78
2021/06/21 04:50:02;;;;;;;9.20;1.90;;;18.30;99.90;;;;;;5096450;28;20252;-78
2021/06/21 04:52:29;;;;;;;6.93;1.93;;;18.30;99.90;;;;;;5096631;28;20157;-78
2021/06/21 04:55:01;;;;;;;7.27;1.73;;;18.30;99.90;;;;;;5094960;28;20267;-78
2021/06/21 04:57:27;;;;;;;11.17;2.33;;;18.30;99.90;;;;;;5097088;28;20190;-78
2021/06/21 04:59:52;;;;;;;6.33;1.83;;;18.30;99.90;;;;;;5096986;28;20166;-78
2021/06/21 05:02:18;;;;;;;6.23;1.80;;;18.20;99.90;;;;;;5096275;28;20536;-77
2021/06/21 05:04:44;;;;;;;14.23;3.30;;;18.20;99.90;;;;;;5096273;28;20182;-78
2021/06/21 05:07:09;;;;;;;5.33;2.10;;;18.10;99.90;;;;;;5096092;28;20670;-78
2021/06/21 05:09:35;;;;;;;8.80;2.30;;;18.10;99.90;;;;;;5095178;28;20643;-78
2021/06/21 05:12:02;;;;;;;8.43;2.40;;;18.10;99.90;;;;;;5094819;28;20672;-78
2021/06/21 05:14:28;;;;;;;8.13;1.90;;;18.10;99.90;;;;;;5095656;28;20177;-78
2021/06/21 05:16:54;;;;;;;6.13;1.60;;;18.10;99.90;;;;;;5096111;28;20265;-78
2021/06/21 05:19:20;;;;;;;7.80;2.20;;;18.20;99.90;;;;;;5096497;28;20636;-78
2021/06/21 05:21:45;;;;;;;9.33;2.10;;;18.30;99.90;;;;;;5095934;28;20255;-78
2021/06/21 05:24:11;;;;;;;6.93;2.50;;;18.50;99.90;;;;;;5096473;28;20169;-78
2021/06/21 05:26:37;;;;;;;6.20;2.20;;;18.60;99.90;;;;;;5094573;28;20185;-78
2021/06/21 05:29:02;;;;;;;6.13;1.70;;;18.70;99.90;;;;;;5096124;28;20184;-78
2021/06/21 05:31:28;;;;;;;12.50;2.37;;;18.80;99.90;;;;;;5095956;28;20675;-78
2021/06/21 05:33:54;;;;;;;10.87;1.97;;;18.90;99.90;;;;;;5095883;28;20532;-78
2021/06/21 05:36:19;;;;;;;6.73;1.97;;;18.90;99.90;;;;;;5095820;28;20172;-77
2021/06/21 05:38:45;;;;;;;7.60;2.50;;;18.90;99.90;;;;;;5094695;28;20293;-76
2021/06/21 05:41:11;;;;;;;5.20;1.97;;;18.90;99.90;;;;;;5095678;28;20181;-76
2021/06/21 05:43:37;;;;;;;8.80;2.23;;;19.00;99.90;;;;;;5095612;28;20226;-76
2021/06/21 05:46:03;;;;;;;7.50;1.90;;;19.00;99.90;;;;;;5096477;28;20264;-76
2021/06/21 05:48:29;;;;;;;5.13;2.10;;;19.00;99.90;;;;;;5095746;28;20219;-76
2021/06/21 05:50:54;;;;;;;6.27;1.80;;;19.10;99.90;;;;;;5095667;28;20178;-77
2021/06/21 05:53:20;;;;;;;9.30;2.23;;;19.10;99.90;;;;;;5095434;28;20602;-77
2021/06/21 05:55:46;;;;;;;6.13;1.87;;;19.20;99.90;;;;;;5095376;28;20183;-76
2021/06/21 05:58:11;;;;;;;13.90;2.00;;;19.20;99.90;;;;;;5094187;28;20257;-77
2021/06/21 06:00:37;;;;;;;6.80;1.80;;;19.30;99.90;;;;;;5095158;28;20174;-77
2021/06/21 06:03:03;;;;;;;5.13;2.07;;;19.30;99.90;;;;;;5097682;28;20178;-78
2021/06/21 06:05:29;;;;;;;9.63;1.87;;;19.30;99.90;;;;;;5097075;28;20184;-78
2021/06/21 06:07:55;;;;;;;8.93;2.07;;;19.30;99.90;;;;;;5095738;28;20614;-78
2021/06/21 06:10:21;;;;;;;9.53;2.20;;;19.40;99.90;;;;;;5095742;28;20647;-78
2021/06/21 06:12:47;;;;;;;7.13;2.47;;;19.40;99.90;;;;;;5096058;28;20554;-78
2021/06/21 06:15:13;;;;;;;9.23;1.77;;;19.50;99.90;;;;;;5094892;28;20678;-77
2021/06/21 06:17:39;;;;;;;5.93;2.00;;;19.60;99.90;;;;;;5095292;28;20278;-78
2021/06/21 06:20:06;;;;;;;12.33;2.27;;;19.60;99.90;;;;;;5093527;28;20180;-77
2021/06/21 06:22:31;;;;;;;7.47;2.20;;;19.70;99.90;;;;;;5095082;28;20187;-78
2021/06/21 06:24:57;;;;;;;14.73;2.57;;;19.80;99.90;;;;;;5093502;28;20181;-77
2021/06/21 06:27:23;;;;;;;6.27;1.90;;;19.90;99.90;;;;;;5094200;28;20285;-80
2021/06/21 06:29:49;;;;;;;8.00;1.63;;;19.90;99.90;;;;;;5097857;28;20279;-80
2021/06/21 06:32:14;;;;;;;6.03;1.93;;;20.00;99.90;;;;;;5097508;28;20229;-79
2021/06/21 06:34:40;;;;;;;8.47;2.00;;;20.00;99.90;;;;;;5099114;28;20185;-80
2021/06/21 06:37:06;;;;;;;12.27;2.70;;;20.10;99.90;;;;;;5099116;28;20322;-79
2021/06/21 06:39:33;;;;;;;5.33;2.33;;;20.20;99.90;;;;;;5099027;28;20176;-80
2021/06/21 06:41:59;;;;;;;8.30;2.27;;;20.30;99.90;;;;;;5097265;28;20592;-79
2021/06/21 06:44:25;;;;;;;8.87;2.30;;;20.40;99.90;;;;;;5099079;28;20224;-79
2021/06/21 06:46:51;;;;;;;10.27;1.83;;;20.40;99.90;;;;;;5097776;28;20604;-79
2021/06/21 06:49:16;;;;;;;4.37;1.90;;;20.60;99.90;;;;;;5099505;28;20222;-79
2021/06/21 06:51:44;;;;;;;6.67;2.17;;;20.60;99.90;;;;;;5097268;28;20178;-80
2021/06/21 06:59:32;;;;;;;6.77;1.87;;;20.70;99.90;;;;;;5099813;28;20517;-80
2021/06/21 07:02:00;;;;;;;6.10;1.97;;;20.80;99.90;;;;;;5099023;28;20160;-79
2021/06/21 07:04:26;;;;;;;7.53;1.77;;;20.80;99.90;;;;;;5098514;28;20185;-79
2021/06/21 07:06:51;;;;;;;6.90;1.97;;;20.80;99.90;;;;;;5099160;28;20255;-80
2021/06/21 07:09:18;;;;;;;6.20;1.80;;;20.90;99.90;;;;;;5095538;28;20201;-79
2021/06/21 07:11:45;;;;;;;4.80;1.23;;;20.90;99.90;;;;;;5095766;28;20254;-79
2021/06/21 07:14:11;;;;;;;7.67;1.80;;;21.00;99.90;;;;;;5096687;28;20256;-77
2021/06/21 07:16:37;;;;;;;6.90;1.80;;;21.30;99.90;;;;;;5093946;28;20194;-77
2021/06/21 07:19:03;;;;;;;8.33;1.90;;;21.30;99.90;;;;;;5093712;28;20226;-77
2021/06/21 07:21:29;;;;;;;3.83;1.30;;;21.40;99.90;;;;;;5092528;28;20186;-77
2021/06/21 07:23:55;;;;;;;3.87;1.93;;;21.40;99.90;;;;;;5092702;28;20178;-77
2021/06/21 07:26:21;;;;;;;7.77;1.80;;;21.40;99.90;;;;;;5092366;28;20185;-77
2021/06/21 07:28:47;;;;;;;8.23;2.13;;;21.50;99.90;;;;;;5092408;28;20270;-77
2021/06/21 07:31:13;;;;;;;4.93;1.70;;;21.50;99.90;;;;;;5092358;28;20270;-77
2021/06/21 07:33:39;;;;;;;5.40;1.70;;;21.50;99.90;;;;;;5092507;28;20198;-77
2021/06/21 07:36:06;;;;;;;6.93;1.67;;;21.40;99.90;;;;;;5093929;28;20616;-77
2021/06/21 07:38:32;;;;;;;7.67;1.73;;;21.50;99.90;;;;;;5092492;28;20203;-77
2021/06/21 07:40:58;;;;;;;6.87;2.03;;;21.60;99.90;;;;;;5094642;28;20242;-78
2021/06/21 07:43:24;;;;;;;6.03;1.73;;;21.70;99.90;;;;;;5093345;28;20271;-78
2021/06/21 07:45:50;;;;;;;6.67;1.80;;;21.80;99.90;;;;;;5095239;28;20266;-78
2021/06/21 07:48:17;;;;;;;5.10;1.23;;;21.90;99.90;;;;;;5095341;28;20282;-78
2021/06/21 07:50:42;;;;;;;6.67;1.70;;;22.00;99.90;;;;;;5094426;28;20168;-78
2021/06/21 07:53:09;;;;;;;7.87;1.80;;;22.10;99.90;;;;;;5093402;28;20550;-78
2021/06/21 07:55:34;;;;;;;5.00;1.97;;;22.10;99.90;;;;;;5094907;28;20271;-78
2021/06/21 07:58:01;;;;;;;4.70;1.47;;;22.20;99.90;;;;;;5093957;28;20239;-78
2021/06/21 08:00:28;;;;;;;5.67;1.70;;;22.20;99.90;;;;;;5094093;28;20231;-78
2021/06/21 08:02:55;;;;;;;4.77;1.60;;;22.30;99.90;;;;;;5095494;28;20540;-78
2021/06/21 08:05:22;;;;;;;5.10;1.83;;;22.20;99.90;;;;;;5094917;28;20184;-78
2021/06/21 08:07:49;;;;;;;7.53;1.87;;;22.30;99.90;;;;;;5092705;28;20212;-78
2021/06/21 08:10:16;;;;;;;7.83;1.67;;;22.30;99.90;;;;;;5095265;28;20163;-78
2021/06/21 08:12:43;;;;;;;7.77;1.70;;;22.50;99.90;;;;;;5093199;28;20180;-78
2021/06/21 08:15:11;;;;;;;9.27;2.00;;;22.70;99.90;;;;;;5093730;28;20180;-78
2021/06/21 08:17:38;;;;;;;4.67;1.73;;;22.70;99.90;;;;;;5094788;28;20196;-78
2021/06/21 08:20:06;;;;;;;5.90;1.73;;;22.80;99.90;;;;;;5093681;28;20180;-79
2021/06/21 08:22:32;;;;;;;6.57;1.70;;;22.90;99.90;;;;;;5095432;28;20208;-78
2021/06/21 08:24:58;;;;;;;4.57;1.60;;;23.00;99.90;;;;;;5096378;28;20180;-78
2021/06/21 08:27:23;;;;;;;4.10;1.73;;;23.10;99.90;;;;;;5093966;28;20252;-78
2021/06/21 08:29:49;;;;;;;5.00;1.83;;;23.10;99.90;;;;;;5094828;28;20263;-78
2021/06/21 08:32:15;;;;;;;9.13;1.90;;;23.20;99.90;;;;;;5097020;28;20172;-78
2021/06/21 08:34:41;;;;;;;7.03;1.97;;;23.30;99.90;;;;;;5098701;28;20253;-78
2021/06/21 08:37:07;;;;;;;3.83;1.47;;;23.30;99.90;;;;;;5098514;28;20186;-78
2021/06/21 08:39:33;;;;;;;6.90;1.73;;;23.30;99.90;;;;;;5098594;28;20180;-78
2021/06/21 08:41:59;;;;;;;9.13;1.97;;;23.40;99.90;;;;;;5097313;28;20183;-78
2021/06/21 08:44:26;;;;;;;10.07;1.90;;;23.50;99.90;;;;;;5096489;28;20173;-78
2021/06/21 08:46:52;;;;;;;5.90;1.80;;;23.60;99.90;;;;;;5098263;28;20184;-78
2021/06/21 08:49:19;;;;;;;6.33;1.80;;;23.70;99.90;;;;;;5097841;28;20608;-78
2021/06/21 08:51:46;;;;;;;6.70;1.50;;;23.80;99.90;;;;;;5097267;28;20526;-78
2021/06/21 08:54:12;;;;;;;8.17;1.70;;;23.90;99.90;;;;;;5097524;28;20171;-77
2021/06/21 08:56:37;;;;;;;9.63;2.07;;;24.00;99.90;;;;;;5098023;28;20254;-78
2021/06/21 08:59:06;;;;;;;6.43;1.90;;;24.20;99.90;;;;;;5097736;28;20212;-77
2021/06/21 09:01:36;;;;;;;10.70;2.00;;;24.30;99.90;;;;;;5097009;28;20188;-77
2021/06/21 09:04:03;;;;;;;6.60;2.23;;;24.40;99.90;;;;;;5097463;28;20158;-77
2021/06/21 09:06:35;;;;;;;5.03;1.57;;;24.50;99.90;;;;;;5097227;28;20177;-77
2021/06/21 09:09:02;;;;;;;8.33;2.00;;;24.80;99.90;;;;;;5096372;28;20203;-77
2021/06/21 09:11:46;;;;;;;4.83;1.97;;;25.00;99.90;;;;;;5097560;28;20170;-77
2021/06/21 09:14:33;;;;;;;4.10;1.90;;;25.10;99.90;;;;;;5098030;28;20627;-77
2021/06/21 09:17:02;;;;;;;4.90;1.53;;;25.30;99.90;;;;;;5097432;28;20226;-77
2021/06/21 09:19:29;;;;;;;8.20;1.90;;;25.40;99.90;;;;;;5098185;28;20181;-77
2021/06/21 09:21:55;;;;;;;7.60;2.40;;;25.50;99.90;;;;;;5097809;28;20179;-77
2021/06/21 09:24:23;;;;;;;6.43;1.63;;;25.60;99.90;;;;;;5098618;28;20646;-78
2021/06/21 09:26:51;;;;;;;3.63;1.30;;;25.90;99.90;;;;;;5095765;28;20295;-77
2021/06/21 09:29:30;;;;;;;5.33;1.13;;;26.00;99.90;;;;;;5096579;28;20545;-77
2021/06/21 09:31:57;;;;;;;5.27;1.60;;;26.10;99.90;;;;;;5095822;28;20165;-77
2021/06/21 09:34:24;;;;;;;6.07;1.30;;;26.10;99.90;;;;;;5094862;28;20201;-77
2021/06/21 09:36:51;;;;;;;6.07;1.60;;;26.20;99.90;;;;;;5096068;28;20184;-77
2021/06/21 09:39:20;;;;;;;7.17;1.90;;;26.20;99.90;;;;;;5096211;28;20169;-77
2021/06/21 09:42:04;;;;;;;5.73;1.13;;;26.60;99.90;;;;;;5096291;28;20701;-78
2021/06/21 09:44:35;;;;;;;4.83;1.30;;;26.60;99.90;;;;;;5094737;28;20544;-77
2021/06/21 09:47:16;;;;;;;7.07;1.57;;;26.70;99.90;;;;;;5094561;28;20200;-77
2021/06/21 09:50:22;;;;;;;8.43;1.47;;;26.80;99.90;;;;;;5095158;28;20275;-77
2021/06/21 09:53:02;;;;;;;3.33;1.20;;;26.90;99.90;;;;;;5095698;28;20165;-77
2021/06/21 09:55:38;;;;;;;6.87;1.27;;;27.10;99.90;;;;;;5095842;28;20297;-77
2021/06/21 09:58:16;;;;;;;3.07;1.30;;;27.20;99.90;;;;;;5095776;28;20201;-78
2021/06/21 10:00:49;;;;;;;8.40;1.57;;;27.40;99.90;;;;;;5095797;28;20162;-77
2021/06/21 10:03:27;;;;;;;3.70;1.33;;;27.40;99.90;;;;;;5096187;28;20179;-77
2021/06/21 10:06:08;;;;;;;5.70;1.70;;;27.20;99.90;;;;;;5095861;28;20173;-77
2021/06/21 10:08:45;;;;;;;4.03;1.30;;;26.90;99.90;;;;;;5095445;28;20197;-77
2021/06/21 10:11:31;;;;;;;2.23;1.17;;;26.20;99.90;;;;;;5095272;28;20215;-77
2021/06/21 10:14:03;;;;;;;4.57;1.23;;;26.20;99.90;;;;;;5095158;28;20181;-77
2021/06/21 10:16:29;;;;;;;4.90;1.23;;;26.60;99.90;;;;;;5095375;28;20227;-77
2021/06/21 10:18:55;;;;;;;4.77;1.20;;;27.10;99.90;;;;;;5095191;28;20174;-77
2021/06/21 10:21:22;;;;;;;3.57;1.10;;;27.50;99.90;;;;;;5095262;28;20174;-76
2021/06/21 10:23:48;;;;;;;3.70;1.37;;;27.70;99.90;;;;;;5095542;28;20177;-77
2021/06/21 10:26:15;;;;;;;7.03;1.47;;;28.00;99.90;;;;;;5095016;28;20175;-77
2021/06/21 10:28:41;;;;;;;4.63;1.30;;;28.20;99.90;;;;;;5094637;28;20219;-77
2021/06/21 10:31:06;;;;;;;5.00;1.73;;;28.30;99.90;;;;;;5094963;28;20528;-77
2021/06/21 10:33:34;;;;;;;6.87;1.50;;;28.30;99.90;;;;;;5094870;28;20176;-77
2021/06/21 10:36:06;;;;;;;6.50;1.73;;;27.80;99.90;;;;;;5094791;28;20250;-77
2021/06/21 10:38:32;;;;;;;5.00;1.57;;;27.40;99.90;;;;;;5094672;28;20289;-77
2021/06/21 10:41:01;;;;;;;5.07;1.50;;;27.40;99.90;;;;;;5094549;28;20165;-77
2021/06/21 10:43:48;;;;;;;4.67;1.70;;;27.60;99.90;;;;;;5094901;28;20171;-77
2021/06/21 10:46:28;;;;;;;5.37;1.80;;;27.80;99.90;;;;;;5094826;28;20159;-77
2021/06/21 10:49:08;;;;;;;6.57;2.17;;;27.30;98.60;;;;;;5094492;28;20226;-77
2021/06/21 10:51:36;;;;;;;3.13;1.33;;;27.20;99.90;;;;;;5094556;28;20155;-76
2021/06/21 10:54:03;;;;;;;6.87;1.50;;;27.60;99.90;;;;;;5092535;28;20632;-77
2021/06/21 10:56:48;;;;;;;4.87;1.50;;;28.10;99.90;;;;;;5094497;28;20175;-77
2021/06/21 10:59:18;;;;;;;8.57;1.70;;;28.70;99.90;;;;;;5094473;28;20227;-77
2021/06/21 11:01:45;;;;;;;6.70;1.73;;;29.20;99.90;;;;;;5093992;28;20192;-77
2021/06/21 11:04:11;;;;;;;5.07;1.50;;;29.50;99.70;;;;;;5092945;28;20177;-77
2021/06/21 11:06:38;;;;;;;5.20;1.67;;;29.10;98.70;;;;;;5093448;28;20186;-78
2021/06/21 11:09:06;;;;;;;7.23;2.13;;;28.70;99.30;;;;;;5093377;28;20224;-77
2021/06/21 11:11:34;;;;;;;6.17;1.70;;;28.60;99.90;;;;;;5094588;28;20258;-77
2021/06/21 11:14:24;;;;;;;4.20;1.43;;;29.10;96.90;;;;;;5094302;28;20169;-76
2021/06/21 11:17:19;;;;;;;9.23;1.47;;;29.50;99.80;;;;;;5094583;28;20697;-78
2021/06/21 11:19:44;;;;;;;7.57;1.47;;;29.30;98.00;;;;;;5092706;28;20174;-77
2021/06/21 11:22:12;;;;;;;5.07;1.20;;;29.70;98.50;;;;;;5092715;28;20169;-76
2021/06/21 11:24:42;;;;;;;7.40;1.90;;;30.30;99.00;;;;;;5092776;28;20260;-76
2021/06/21 11:27:10;;;;;;;5.47;1.93;;;29.80;92.60;;;;;;5096772;28;20200;-77
2021/06/21 11:29:41;;;;;;;6.40;1.70;;;29.50;99.20;;;;;;5093202;28;20667;-77
2021/06/21 11:32:07;;;;;;;7.30;1.50;;;29.10;93.80;;;;;;5094290;28;20154;-77
2021/06/21 11:34:54;;;;;;;4.97;1.60;;;28.70;98.20;;;;;;5094403;28;20270;-77
2021/06/21 11:37:32;;;;;;;5.57;1.70;;;28.60;97.50;;;;;;5094802;28;20281;-77
2021/06/21 11:40:18;;;;;;;4.83;1.70;;;28.90;96.60;;;;;;5092501;28;20172;-77
2021/06/21 11:43:03;;;;;;;5.80;1.43;;;29.30;98.50;;;;;;5093451;28;20544;-82
2021/06/21 11:45:50;;;;;;;6.50;1.70;;;29.20;98.60;;;;;;5093160;28;20184;-77
2021/06/21 11:48:42;;;;;;;9.97;1.87;;;29.10;95.30;;;;;;5093775;28;20288;-76
2021/06/21 11:51:14;;;;;;;13.80;2.07;;;29.90;93.10;;;;;;5094034;28;20185;-77
2021/06/21 11:53:47;;;;;;;6.97;2.03;;;30.50;95.70;;;;;;5094223;28;20225;-77
2021/06/21 11:56:26;;;;;;;6.77;1.30;;;30.60;92.90;;;;;;5097648;28;20179;-78
2021/06/21 11:58:53;;;;;;;4.53;1.57;;;30.00;94.50;;;;;;5097477;28;20174;-78
2021/06/21 12:01:25;;;;;;;8.17;1.87;;;30.30;95.50;;;;;;5095190;28;20180;-78
2021/06/21 12:04:02;;;;;;;8.33;2.23;;;30.40;94.20;;;;;;5096246;28;20237;-78
2021/06/21 12:06:30;;;;;;;6.03;2.10;;;30.10;90.40;;;;;;5100548;28;20190;-77
2021/06/21 12:08:56;;;;;;;8.60;2.00;;;30.50;94.30;;;;;;5099616;28;20191;-78
2021/06/21 12:11:24;;;;;;;6.60;2.00;;;30.00;91.40;;;;;;5101185;28;20254;-78
2021/06/21 12:14:06;;;;;;;5.67;2.00;;;29.20;92.40;;;;;;5102502;28;20169;-79
2021/06/21 12:16:39;;;;;;;4.77;1.80;;;28.20;91.70;;;;;;5101252;28;20164;-79
2021/06/21 12:19:05;;;;;;;12.53;2.60;;;29.10;93.90;;;;;;5099432;28;20215;-78
2021/06/21 12:21:35;;;;;;;6.47;1.50;;;30.60;96.50;;;;;;5098141;28;20172;-78
2021/06/21 12:24:14;;;;;;;6.20;1.63;;;31.90;93.30;;;;;;5102209;28;20176;-82
2021/06/21 12:26:41;;;;;;;9.37;1.97;;;32.50;87.90;;;;;;5099574;28;20196;-78
2021/06/21 12:29:28;;;;;;;5.63;1.60;;;32.80;93.00;;;;;;5100715;28;20201;-78
2021/06/21 12:32:00;;;;;;;6.50;2.03;;;33.50;90.30;;;;;;5100152;28;20162;-78
2021/06/21 12:34:45;;;;;;;4.70;1.97;;;33.90;82.40;;;;;;5102576;28;20675;-78
2021/06/21 12:37:22;;;;;;;5.97;1.90;;;33.70;89.40;;;;;;5098472;28;20194;-77
2021/06/21 12:39:51;;;;;;;10.10;2.10;;;33.30;82.50;;;;;;5100754;28;20597;-77
2021/06/21 12:42:18;;;;;;;7.47;1.83;;;33.70;75.50;;;;;;5098000;28;20174;-81
2021/06/21 12:44:46;;;;;;;5.87;2.00;;;33.90;78.80;;;;;;5096158;28;20179;-77
2021/06/21 12:47:14;;;;;;;8.23;2.20;;;34.10;85.10;;;;;;5097189;28;20196;-76
2021/06/21 12:49:40;;;;;;;9.53;2.37;;;33.70;77.30;;;;;;5096699;28;20378;-77
2021/06/21 12:52:06;;;;;;;6.97;2.07;;;33.60;80.80;;;;;;5097994;28;20186;-77
2021/06/21 12:54:34;;;;;;;8.60;2.57;;;33.90;86.90;;;;;;5095885;28;20178;-77
2021/06/21 12:57:00;;;;;;;6.93;1.93;;;33.60;74.20;;;;;;5094336;28;20201;-77
2021/06/21 12:59:28;;;;;;;8.23;2.10;;;32.40;82.00;;;;;;5095326;28;20220;-77
2021/06/21 13:01:54;;;;;;;7.73;2.07;;;32.40;83.20;;;;;;5095790;28;20216;-77